sensor_id;sensor_type;location;lat;lon;timestamp;P1;durP1;ratioP1;P2;durP2;ratioP2
65202;SDS011;51788;45.124;38.966;2022-08-21T00:01:24;36.53;;;7.75;;
65202;SDS011;51788;45.124;38.966;2022-08-21T00:03:53;49.60;;;10.70;;
65202;SDS011;51788;45.124;38.966;2022-08-21T00:06:20;33.72;;;7.32;;
65202;SDS011;51788;45.124;38.966;2022-08-21T00:08:47;45.45;;;7.47;;
65202;SDS011;51788;45.124;38.966;2022-08-21T00:11:14;32.70;;;7.63;;
65202;SDS011;51788;45.124;38.966;2022-08-21T00:13:40;43.03;;;7.75;;
65202;SDS011;51788;45.124;38.966;2022-08-21T00:16:06;39.88;;;8.00;;
65202;SDS011;51788;45.124;38.966;2022-08-21T00:18:32;47.88;;;8.05;;
65202;SDS011;51788;45.124;38.966;2022-08-21T00:20:58;41.67;;;7.80;;
65202;SDS011;51788;45.124;38.966;2022-08-21T00:23:25;49.25;;;8.68;;
65202;SDS011;51788;45.124;38.966;2022-08-21T00:25:51;33.17;;;7.30;;
65202;SDS011;51788;45.124;38.966;2022-08-21T00:28:17;48.63;;;8.07;;
65202;SDS011;51788;45.124;38.966;2022-08-21T00:30:43;32.70;;;7.65;;
65202;SDS011;51788;45.124;38.966;2022-08-21T00:33:10;49.63;;;7.40;;
65202;SDS011;51788;45.124;38.966;2022-08-21T00:35:39;40.20;;;7.50;;
65202;SDS011;51788;45.124;38.966;2022-08-21T00:38:06;50.13;;;7.22;;
65202;SDS011;51788;45.124;38.966;2022-08-21T00:40:35;42.90;;;7.97;;
65202;SDS011;51788;45.124;38.966;2022-08-21T00:43:14;36.45;;;8.90;;
65202;SDS011;51788;45.124;38.966;2022-08-21T00:45:43;56.10;;;29.80;;
65202;SDS011;51788;45.124;38.966;2022-08-21T00:48:09;55.15;;;18.83;;
65202;SDS011;51788;45.124;38.966;2022-08-21T00:50:37;41.85;;;13.32;;
65202;SDS011;51788;45.124;38.966;2022-08-21T00:53:07;57.53;;;9.35;;
65202;SDS011;51788;45.124;38.966;2022-08-21T00:55:36;44.67;;;7.65;;
65202;SDS011;51788;45.124;38.966;2022-08-21T00:58:03;31.15;;;7.40;;
65202;SDS011;51788;45.124;38.966;2022-08-21T01:00:34;47.97;;;7.43;;
65202;SDS011;51788;45.124;38.966;2022-08-21T01:03:06;44.97;;;7.70;;
65202;SDS011;51788;45.124;38.966;2022-08-21T01:05:36;41.88;;;8.20;;
65202;SDS011;51788;45.124;38.966;2022-08-21T01:08:03;38.85;;;9.50;;
65202;SDS011;51788;45.124;38.966;2022-08-21T01:10:30;45.05;;;8.85;;
65202;SDS011;51788;45.124;38.966;2022-08-21T01:12:56;40.08;;;9.07;;
65202;SDS011;51788;45.124;38.966;2022-08-21T01:15:25;41.28;;;9.23;;
65202;SDS011;51788;45.124;38.966;2022-08-21T01:17:55;72.05;;;18.50;;
65202;SDS011;51788;45.124;38.966;2022-08-21T01:20:22;35.97;;;8.63;;
65202;SDS011;51788;45.124;38.966;2022-08-21T01:22:48;50.25;;;7.50;;
65202;SDS011;51788;45.124;38.966;2022-08-21T01:25:15;36.10;;;8.90;;
65202;SDS011;51788;45.124;38.966;2022-08-21T01:27:42;64.78;;;8.90;;
65202;SDS011;51788;45.124;38.966;2022-08-21T01:30:13;31.63;;;7.90;;
65202;SDS011;51788;45.124;38.966;2022-08-21T01:32:43;35.92;;;7.70;;
65202;SDS011;51788;45.124;38.966;2022-08-21T01:35:09;59.33;;;14.07;;
65202;SDS011;51788;45.124;38.966;2022-08-21T01:37:36;93.78;;;32.03;;
65202;SDS011;51788;45.124;38.966;2022-08-21T01:40:03;109.63;;;45.60;;
65202;SDS011;51788;45.124;38.966;2022-08-21T01:42:31;79.43;;;34.97;;
65202;SDS011;51788;45.124;38.966;2022-08-21T01:44:57;61.78;;;20.23;;
65202;SDS011;51788;45.124;38.966;2022-08-21T01:47:23;69.55;;;14.32;;
65202;SDS011;51788;45.124;38.966;2022-08-21T01:49:49;75.78;;;15.10;;
65202;SDS011;51788;45.124;38.966;2022-08-21T01:52:15;51.13;;;12.27;;
65202;SDS011;51788;45.124;38.966;2022-08-21T01:54:41;62.10;;;10.43;;
65202;SDS011;51788;45.124;38.966;2022-08-21T01:57:08;56.00;;;10.15;;
65202;SDS011;51788;45.124;38.966;2022-08-21T01:59:34;85.10;;;9.18;;
65202;SDS011;51788;45.124;38.966;2022-08-21T02:02:01;79.88;;;10.80;;
65202;SDS011;51788;45.124;38.966;2022-08-21T02:04:27;98.35;;;10.98;;
65202;SDS011;51788;45.124;38.966;2022-08-21T02:06:53;86.60;;;11.35;;
65202;SDS011;51788;45.124;38.966;2022-08-21T02:09:19;107.85;;;10.55;;
65202;SDS011;51788;45.124;38.966;2022-08-21T02:11:46;99.38;;;10.90;;
65202;SDS011;51788;45.124;38.966;2022-08-21T02:14:14;93.45;;;8.95;;
65202;SDS011;51788;45.124;38.966;2022-08-21T02:16:41;115.63;;;12.65;;
65202;SDS011;51788;45.124;38.966;2022-08-21T02:19:09;124.55;;;11.63;;
65202;SDS011;51788;45.124;38.966;2022-08-21T02:21:36;103.85;;;11.18;;
65202;SDS011;51788;45.124;38.966;2022-08-21T02:24:03;99.38;;;11.43;;
65202;SDS011;51788;45.124;38.966;2022-08-21T02:26:29;96.45;;;12.00;;
65202;SDS011;51788;45.124;38.966;2022-08-21T02:28:55;101.65;;;11.55;;
65202;SDS011;51788;45.124;38.966;2022-08-21T02:31:21;99.20;;;12.02;;
65202;SDS011;51788;45.124;38.966;2022-08-21T02:33:47;129.27;;;13.65;;
65202;SDS011;51788;45.124;38.966;2022-08-21T02:36:13;114.15;;;10.35;;
65202;SDS011;51788;45.124;38.966;2022-08-21T02:38:40;125.90;;;12.77;;
65202;SDS011;51788;45.124;38.966;2022-08-21T02:41:10;94.15;;;11.35;;
65202;SDS011;51788;45.124;38.966;2022-08-21T02:43:38;112.28;;;12.23;;
65202;SDS011;51788;45.124;38.966;2022-08-21T02:46:05;117.13;;;12.73;;
65202;SDS011;51788;45.124;38.966;2022-08-21T02:48:32;145.02;;;13.27;;
65202;SDS011;51788;45.124;38.966;2022-08-21T02:51:01;144.85;;;12.38;;
65202;SDS011;51788;45.124;38.966;2022-08-21T02:53:30;145.80;;;13.88;;
65202;SDS011;51788;45.124;38.966;2022-08-21T02:55:58;138.85;;;14.88;;
65202;SDS011;51788;45.124;38.966;2022-08-21T02:58:27;126.32;;;13.05;;
65202;SDS011;51788;45.124;38.966;2022-08-21T03:00:56;129.13;;;13.23;;
65202;SDS011;51788;45.124;38.966;2022-08-21T03:03:23;104.05;;;11.82;;
65202;SDS011;51788;45.124;38.966;2022-08-21T03:05:50;139.50;;;13.68;;
65202;SDS011;51788;45.124;38.966;2022-08-21T03:08:17;104.50;;;12.25;;
65202;SDS011;51788;45.124;38.966;2022-08-21T03:10:45;137.80;;;13.93;;
65202;SDS011;51788;45.124;38.966;2022-08-21T03:13:13;127.95;;;12.45;;
65202;SDS011;51788;45.124;38.966;2022-08-21T03:15:40;123.50;;;14.10;;
65202;SDS011;51788;45.124;38.966;2022-08-21T03:18:07;133.38;;;14.50;;
65202;SDS011;51788;45.124;38.966;2022-08-21T03:20:35;145.63;;;11.80;;
65202;SDS011;51788;45.124;38.966;2022-08-21T03:23:02;117.05;;;13.27;;
65202;SDS011;51788;45.124;38.966;2022-08-21T03:25:30;123.00;;;11.75;;
65202;SDS011;51788;45.124;38.966;2022-08-21T03:27:59;137.60;;;13.38;;
65202;SDS011;51788;45.124;38.966;2022-08-21T03:30:27;130.30;;;11.77;;
65202;SDS011;51788;45.124;38.966;2022-08-21T03:32:53;128.32;;;15.93;;
65202;SDS011;51788;45.124;38.966;2022-08-21T03:35:19;101.15;;;11.95;;
65202;SDS011;51788;45.124;38.966;2022-08-21T03:37:46;136.25;;;12.98;;
65202;SDS011;51788;45.124;38.966;2022-08-21T03:40:14;98.38;;;10.27;;
65202;SDS011;51788;45.124;38.966;2022-08-21T03:42:42;110.35;;;12.43;;
65202;SDS011;51788;45.124;38.966;2022-08-21T03:45:08;106.35;;;10.15;;
65202;SDS011;51788;45.124;38.966;2022-08-21T03:47:35;123.88;;;11.60;;
65202;SDS011;51788;45.124;38.966;2022-08-21T03:50:02;126.80;;;10.13;;
65202;SDS011;51788;45.124;38.966;2022-08-21T03:52:29;125.85;;;11.32;;
65202;SDS011;51788;45.124;38.966;2022-08-21T03:54:55;113.07;;;11.68;;
65202;SDS011;51788;45.124;38.966;2022-08-21T03:57:21;113.55;;;11.63;;
65202;SDS011;51788;45.124;38.966;2022-08-21T03:59:47;102.07;;;11.02;;
65202;SDS011;51788;45.124;38.966;2022-08-21T04:02:15;84.47;;;10.18;;
65202;SDS011;51788;45.124;38.966;2022-08-21T04:04:45;96.30;;;10.38;;
65202;SDS011;51788;45.124;38.966;2022-08-21T04:07:10;112.97;;;9.85;;
65202;SDS011;51788;45.124;38.966;2022-08-21T04:09:36;106.60;;;10.80;;
65202;SDS011;51788;45.124;38.966;2022-08-21T04:12:03;93.07;;;9.13;;
65202;SDS011;51788;45.124;38.966;2022-08-21T04:14:29;76.05;;;9.70;;
65202;SDS011;51788;45.124;38.966;2022-08-21T04:16:55;100.28;;;11.10;;
65202;SDS011;51788;45.124;38.966;2022-08-21T04:19:21;91.35;;;8.45;;
65202;SDS011;51788;45.124;38.966;2022-08-21T04:21:48;101.85;;;9.27;;
65202;SDS011;51788;45.124;38.966;2022-08-21T04:24:14;98.28;;;10.18;;
65202;SDS011;51788;45.124;38.966;2022-08-21T04:26:40;77.95;;;9.93;;
65202;SDS011;51788;45.124;38.966;2022-08-21T04:29:07;92.78;;;10.45;;
65202;SDS011;51788;45.124;38.966;2022-08-21T04:31:33;81.43;;;9.32;;
65202;SDS011;51788;45.124;38.966;2022-08-21T04:34:02;69.15;;;9.57;;
65202;SDS011;51788;45.124;38.966;2022-08-21T04:36:30;78.07;;;8.20;;
65202;SDS011;51788;45.124;38.966;2022-08-21T04:38:56;75.63;;;8.52;;
65202;SDS011;51788;45.124;38.966;2022-08-21T04:41:22;93.05;;;9.05;;
65202;SDS011;51788;45.124;38.966;2022-08-21T04:43:48;71.93;;;8.27;;
65202;SDS011;51788;45.124;38.966;2022-08-21T04:46:15;76.32;;;8.25;;
65202;SDS011;51788;45.124;38.966;2022-08-21T04:48:41;90.90;;;9.13;;
65202;SDS011;51788;45.124;38.966;2022-08-21T04:51:09;69.88;;;7.75;;
65202;SDS011;51788;45.124;38.966;2022-08-21T04:56:14;75.53;;;9.93;;
65202;SDS011;51788;45.124;38.966;2022-08-21T04:58:45;80.70;;;8.32;;
65202;SDS011;51788;45.124;38.966;2022-08-21T05:01:13;62.83;;;8.38;;
65202;SDS011;51788;45.124;38.966;2022-08-21T05:03:45;62.92;;;8.60;;
65202;SDS011;51788;45.124;38.966;2022-08-21T05:06:13;70.40;;;9.65;;
65202;SDS011;51788;45.124;38.966;2022-08-21T05:08:42;69.95;;;7.53;;
65202;SDS011;51788;45.124;38.966;2022-08-21T05:11:12;52.38;;;6.75;;
65202;SDS011;51788;45.124;38.966;2022-08-21T05:13:38;64.00;;;7.70;;
65202;SDS011;51788;45.124;38.966;2022-08-21T05:16:06;51.35;;;6.07;;
65202;SDS011;51788;45.124;38.966;2022-08-21T05:18:33;88.78;;;8.82;;
65202;SDS011;51788;45.124;38.966;2022-08-21T05:20:59;66.05;;;7.57;;
65202;SDS011;51788;45.124;38.966;2022-08-21T05:23:25;48.55;;;7.25;;
65202;SDS011;51788;45.124;38.966;2022-08-21T05:25:52;55.25;;;6.60;;
65202;SDS011;51788;45.124;38.966;2022-08-21T05:28:18;46.03;;;6.53;;
65202;SDS011;51788;45.124;38.966;2022-08-21T05:30:44;49.65;;;6.88;;
65202;SDS011;51788;45.124;38.966;2022-08-21T05:33:11;53.47;;;8.63;;
65202;SDS011;51788;45.124;38.966;2022-08-21T05:35:37;60.20;;;6.32;;
65202;SDS011;51788;45.124;38.966;2022-08-21T05:38:03;64.82;;;7.00;;
65202;SDS011;51788;45.124;38.966;2022-08-21T05:40:30;80.35;;;8.57;;
65202;SDS011;51788;45.124;38.966;2022-08-21T05:42:57;65.70;;;8.25;;
65202;SDS011;51788;45.124;38.966;2022-08-21T05:45:25;40.28;;;5.88;;
65202;SDS011;51788;45.124;38.966;2022-08-21T05:47:56;56.10;;;7.40;;
65202;SDS011;51788;45.124;38.966;2022-08-21T05:50:22;79.22;;;7.93;;
65202;SDS011;51788;45.124;38.966;2022-08-21T05:52:48;62.22;;;7.63;;
65202;SDS011;51788;45.124;38.966;2022-08-21T05:55:14;58.97;;;6.82;;
65202;SDS011;51788;45.124;38.966;2022-08-21T05:57:40;58.13;;;8.50;;
65202;SDS011;51788;45.124;38.966;2022-08-21T06:00:10;72.90;;;7.45;;
65202;SDS011;51788;45.124;38.966;2022-08-21T06:02:40;49.63;;;6.32;;
65202;SDS011;51788;45.124;38.966;2022-08-21T06:05:06;71.13;;;8.55;;
65202;SDS011;51788;45.124;38.966;2022-08-21T06:07:33;70.63;;;10.82;;
65202;SDS011;51788;45.124;38.966;2022-08-21T06:09:59;78.80;;;8.27;;
65202;SDS011;51788;45.124;38.966;2022-08-21T06:12:25;61.08;;;8.13;;
65202;SDS011;51788;45.124;38.966;2022-08-21T06:14:51;62.10;;;7.97;;
65202;SDS011;51788;45.124;38.966;2022-08-21T06:17:17;48.35;;;7.45;;
65202;SDS011;51788;45.124;38.966;2022-08-21T06:19:44;63.10;;;7.50;;
65202;SDS011;51788;45.124;38.966;2022-08-21T06:22:10;76.25;;;9.90;;
65202;SDS011;51788;45.124;38.966;2022-08-21T06:24:36;44.75;;;6.97;;
65202;SDS011;51788;45.124;38.966;2022-08-21T06:27:05;61.08;;;8.45;;
65202;SDS011;51788;45.124;38.966;2022-08-21T06:29:33;43.67;;;6.53;;
65202;SDS011;51788;45.124;38.966;2022-08-21T06:31:59;72.45;;;9.27;;
65202;SDS011;51788;45.124;38.966;2022-08-21T06:34:25;62.63;;;8.27;;
65202;SDS011;51788;45.124;38.966;2022-08-21T06:36:51;63.38;;;8.15;;
65202;SDS011;51788;45.124;38.966;2022-08-21T06:39:17;67.65;;;7.65;;
65202;SDS011;51788;45.124;38.966;2022-08-21T06:41:44;56.22;;;7.15;;
65202;SDS011;51788;45.124;38.966;2022-08-21T06:44:10;63.05;;;7.30;;
65202;SDS011;51788;45.124;38.966;2022-08-21T06:46:37;42.67;;;8.50;;
65202;SDS011;51788;45.124;38.966;2022-08-21T06:49:03;54.10;;;7.80;;
65202;SDS011;51788;45.124;38.966;2022-08-21T06:51:29;60.70;;;7.47;;
65202;SDS011;51788;45.124;38.966;2022-08-21T06:53:55;52.47;;;7.50;;
65202;SDS011;51788;45.124;38.966;2022-08-21T06:56:22;68.85;;;9.93;;
65202;SDS011;51788;45.124;38.966;2022-08-21T06:58:48;70.85;;;7.38;;
65202;SDS011;51788;45.124;38.966;2022-08-21T07:01:14;55.92;;;6.93;;
65202;SDS011;51788;45.124;38.966;2022-08-21T07:03:41;50.78;;;5.75;;
65202;SDS011;51788;45.124;38.966;2022-08-21T07:06:08;49.22;;;7.28;;
65202;SDS011;51788;45.124;38.966;2022-08-21T07:08:35;85.95;;;8.85;;
65202;SDS011;51788;45.124;38.966;2022-08-21T07:11:03;39.05;;;6.25;;
65202;SDS011;51788;45.124;38.966;2022-08-21T07:13:32;45.95;;;6.40;;
65202;SDS011;51788;45.124;38.966;2022-08-21T07:15:58;72.28;;;7.72;;
65202;SDS011;51788;45.124;38.966;2022-08-21T07:18:24;63.35;;;8.15;;
65202;SDS011;51788;45.124;38.966;2022-08-21T07:20:50;60.80;;;7.20;;
65202;SDS011;51788;45.124;38.966;2022-08-21T07:23:23;60.90;;;8.02;;
65202;SDS011;51788;45.124;38.966;2022-08-21T07:25:53;52.83;;;8.48;;
65202;SDS011;51788;45.124;38.966;2022-08-21T07:28:19;60.42;;;7.28;;
65202;SDS011;51788;45.124;38.966;2022-08-21T07:30:46;64.95;;;9.05;;
65202;SDS011;51788;45.124;38.966;2022-08-21T07:33:17;76.63;;;7.72;;
65202;SDS011;51788;45.124;38.966;2022-08-21T07:35:43;47.38;;;7.40;;
65202;SDS011;51788;45.124;38.966;2022-08-21T07:38:09;64.55;;;8.27;;
65202;SDS011;51788;45.124;38.966;2022-08-21T07:40:35;64.72;;;8.02;;
65202;SDS011;51788;45.124;38.966;2022-08-21T07:43:01;58.42;;;7.68;;
65202;SDS011;51788;45.124;38.966;2022-08-21T07:45:28;61.13;;;8.48;;
65202;SDS011;51788;45.124;38.966;2022-08-21T07:47:54;71.50;;;11.10;;
65202;SDS011;51788;45.124;38.966;2022-08-21T07:50:20;65.85;;;7.70;;
65202;SDS011;51788;45.124;38.966;2022-08-21T07:52:47;65.07;;;9.48;;
65202;SDS011;51788;45.124;38.966;2022-08-21T07:55:14;70.53;;;8.93;;
65202;SDS011;51788;45.124;38.966;2022-08-21T07:57:42;60.30;;;8.25;;
65202;SDS011;51788;45.124;38.966;2022-08-21T08:00:11;66.50;;;7.18;;
65202;SDS011;51788;45.124;38.966;2022-08-21T08:02:39;55.90;;;7.53;;
65202;SDS011;51788;45.124;38.966;2022-08-21T08:05:07;41.30;;;7.55;;
65202;SDS011;51788;45.124;38.966;2022-08-21T08:07:36;53.60;;;11.27;;
65202;SDS011;51788;45.124;38.966;2022-08-21T08:10:03;72.75;;;9.43;;
65202;SDS011;51788;45.124;38.966;2022-08-21T08:12:32;58.78;;;7.50;;
65202;SDS011;51788;45.124;38.966;2022-08-21T08:15:00;64.72;;;10.02;;
65202;SDS011;51788;45.124;38.966;2022-08-21T08:17:26;64.75;;;9.15;;
65202;SDS011;51788;45.124;38.966;2022-08-21T08:19:53;60.88;;;7.30;;
65202;SDS011;51788;45.124;38.966;2022-08-21T08:22:20;69.43;;;7.63;;
65202;SDS011;51788;45.124;38.966;2022-08-21T08:24:49;44.72;;;7.43;;
65202;SDS011;51788;45.124;38.966;2022-08-21T08:27:16;80.75;;;11.00;;
65202;SDS011;51788;45.124;38.966;2022-08-21T08:29:43;59.28;;;7.85;;
65202;SDS011;51788;45.124;38.966;2022-08-21T08:32:09;62.97;;;9.13;;
65202;SDS011;51788;45.124;38.966;2022-08-21T08:34:36;55.92;;;8.02;;
65202;SDS011;51788;45.124;38.966;2022-08-21T08:37:04;58.67;;;8.65;;
65202;SDS011;51788;45.124;38.966;2022-08-21T08:39:31;72.90;;;8.23;;
65202;SDS011;51788;45.124;38.966;2022-08-21T08:42:05;58.00;;;9.50;;
65202;SDS011;51788;45.124;38.966;2022-08-21T08:44:42;63.08;;;9.80;;
65202;SDS011;51788;45.124;38.966;2022-08-21T08:47:14;64.43;;;8.38;;
65202;SDS011;51788;45.124;38.966;2022-08-21T08:49:51;70.40;;;7.95;;
65202;SDS011;51788;45.124;38.966;2022-08-21T08:52:27;56.63;;;8.30;;
65202;SDS011;51788;45.124;38.966;2022-08-21T08:55:09;74.90;;;8.93;;
65202;SDS011;51788;45.124;38.966;2022-08-21T08:57:42;65.57;;;8.60;;
65202;SDS011;51788;45.124;38.966;2022-08-21T09:00:11;54.40;;;7.30;;
65202;SDS011;51788;45.124;38.966;2022-08-21T09:02:40;67.13;;;8.25;;
65202;SDS011;51788;45.124;38.966;2022-08-21T09:05:07;51.28;;;7.20;;
65202;SDS011;51788;45.124;38.966;2022-08-21T09:13:11;61.97;;;7.95;;
65202;SDS011;51788;45.124;38.966;2022-08-21T09:16:00;62.92;;;9.50;;
65202;SDS011;51788;45.124;38.966;2022-08-21T09:21:26;60.25;;;8.93;;
65202;SDS011;51788;45.124;38.966;2022-08-21T09:24:16;50.13;;;9.55;;
65202;SDS011;51788;45.124;38.966;2022-08-21T09:29:41;70.25;;;10.15;;
65202;SDS011;51788;45.124;38.966;2022-08-21T09:32:11;76.82;;;11.00;;
65202;SDS011;51788;45.124;38.966;2022-08-21T09:35:10;74.90;;;10.30;;
65202;SDS011;51788;45.124;38.966;2022-08-21T09:37:35;53.10;;;9.68;;
65202;SDS011;51788;45.124;38.966;2022-08-21T09:45:29;68.90;;;11.25;;
65202;SDS011;51788;45.124;38.966;2022-08-21T09:47:56;65.57;;;11.52;;
65202;SDS011;51788;45.124;38.966;2022-08-21T09:50:32;43.42;;;8.75;;
65202;SDS011;51788;45.124;38.966;2022-08-21T09:52:59;53.00;;;8.95;;
65202;SDS011;51788;45.124;38.966;2022-08-21T09:58:14;72.53;;;9.48;;
65202;SDS011;51788;45.124;38.966;2022-08-21T10:00:41;59.47;;;8.90;;
65202;SDS011;51788;45.124;38.966;2022-08-21T10:03:09;58.97;;;9.85;;
65202;SDS011;51788;45.124;38.966;2022-08-21T10:05:50;55.33;;;9.05;;
65202;SDS011;51788;45.124;38.966;2022-08-21T10:08:20;57.42;;;9.77;;
65202;SDS011;51788;45.124;38.966;2022-08-21T10:10:53;69.55;;;8.95;;
65202;SDS011;51788;45.124;38.966;2022-08-21T10:13:37;43.53;;;10.27;;
65202;SDS011;51788;45.124;38.966;2022-08-21T10:16:45;53.17;;;10.77;;
65202;SDS011;51788;45.124;38.966;2022-08-21T10:25:06;45.88;;;8.88;;
65202;SDS011;51788;45.124;38.966;2022-08-21T10:27:43;58.33;;;7.72;;
65202;SDS011;51788;45.124;38.966;2022-08-21T10:30:14;41.53;;;8.13;;
65202;SDS011;51788;45.124;38.966;2022-08-21T10:35:40;52.42;;;9.55;;
65202;SDS011;51788;45.124;38.966;2022-08-21T10:41:06;51.78;;;8.25;;
65202;SDS011;51788;45.124;38.966;2022-08-21T10:54:35;67.13;;;8.25;;
65202;SDS011;51788;45.124;38.966;2022-08-21T10:57:14;65.53;;;7.60;;
65202;SDS011;51788;45.124;38.966;2022-08-21T10:59:52;59.63;;;7.28;;
65202;SDS011;51788;45.124;38.966;2022-08-21T11:04:53;60.75;;;7.50;;
65202;SDS011;51788;45.124;38.966;2022-08-21T11:07:35;72.40;;;7.95;;
65202;SDS011;51788;45.124;38.966;2022-08-21T11:10:13;69.95;;;7.75;;
65202;SDS011;51788;45.124;38.966;2022-08-21T11:12:44;55.88;;;7.60;;
65202;SDS011;51788;45.124;38.966;2022-08-21T11:29:40;65.90;;;7.55;;
65202;SDS011;51788;45.124;38.966;2022-08-21T11:32:24;49.42;;;6.68;;
65202;SDS011;51788;45.124;38.966;2022-08-21T11:43:41;52.85;;;8.05;;
65202;SDS011;51788;45.124;38.966;2022-08-21T11:49:13;41.97;;;5.55;;
65202;SDS011;51788;45.124;38.966;2022-08-21T11:54:28;44.63;;;6.53;;
65202;SDS011;51788;45.124;38.966;2022-08-21T11:57:13;57.38;;;8.27;;
65202;SDS011;51788;45.124;38.966;2022-08-21T11:59:59;56.03;;;8.35;;
65202;SDS011;51788;45.124;38.966;2022-08-21T12:02:45;41.67;;;7.22;;
65202;SDS011;51788;45.124;38.966;2022-08-21T12:05:33;48.83;;;6.78;;
65202;SDS011;51788;45.124;38.966;2022-08-21T12:08:10;62.97;;;6.28;;
65202;SDS011;51788;45.124;38.966;2022-08-21T12:13:37;56.30;;;7.95;;
65202;SDS011;51788;45.124;38.966;2022-08-21T12:16:07;54.08;;;6.75;;
65202;SDS011;51788;45.124;38.966;2022-08-21T12:18:41;64.60;;;7.07;;
65202;SDS011;51788;45.124;38.966;2022-08-21T12:21:19;60.22;;;6.85;;
65202;SDS011;51788;45.124;38.966;2022-08-21T12:29:21;55.58;;;7.45;;
65202;SDS011;51788;45.124;38.966;2022-08-21T12:31:55;51.65;;;6.30;;
65202;SDS011;51788;45.124;38.966;2022-08-21T12:40:00;40.03;;;6.15;;
65202;SDS011;51788;45.124;38.966;2022-08-21T12:45:50;38.22;;;7.35;;
65202;SDS011;51788;45.124;38.966;2022-08-21T12:48:22;54.20;;;6.80;;
65202;SDS011;51788;45.124;38.966;2022-08-21T12:50:57;43.50;;;6.72;;
65202;SDS011;51788;45.124;38.966;2022-08-21T12:53:33;59.35;;;7.85;;
65202;SDS011;51788;45.124;38.966;2022-08-21T12:56:09;47.30;;;5.90;;
65202;SDS011;51788;45.124;38.966;2022-08-21T12:58:40;44.30;;;6.90;;
65202;SDS011;51788;45.124;38.966;2022-08-21T13:01:31;35.30;;;5.65;;
65202;SDS011;51788;45.124;38.966;2022-08-21T13:04:03;55.00;;;5.95;;
65202;SDS011;51788;45.124;38.966;2022-08-21T13:06:40;42.55;;;6.25;;
65202;SDS011;51788;45.124;38.966;2022-08-21T13:09:11;46.58;;;5.70;;
65202;SDS011;51788;45.124;38.966;2022-08-21T13:11:40;47.10;;;5.22;;
65202;SDS011;51788;45.124;38.966;2022-08-21T13:17:07;37.67;;;5.85;;
65202;SDS011;51788;45.124;38.966;2022-08-21T13:19:35;53.85;;;6.55;;
65202;SDS011;51788;45.124;38.966;2022-08-21T13:22:01;54.97;;;7.70;;
65202;SDS011;51788;45.124;38.966;2022-08-21T13:24:29;35.20;;;7.72;;
65202;SDS011;51788;45.124;38.966;2022-08-21T13:26:59;43.58;;;5.97;;
65202;SDS011;51788;45.124;38.966;2022-08-21T13:29:30;52.75;;;7.57;;
65202;SDS011;51788;45.124;38.966;2022-08-21T13:32:01;42.58;;;6.53;;
65202;SDS011;51788;45.124;38.966;2022-08-21T13:34:31;49.20;;;6.18;;
65202;SDS011;51788;45.124;38.966;2022-08-21T13:39:29;48.90;;;6.30;;
65202;SDS011;51788;45.124;38.966;2022-08-21T13:41:58;59.38;;;6.57;;
65202;SDS011;51788;45.124;38.966;2022-08-21T13:44:36;43.17;;;7.78;;
65202;SDS011;51788;45.124;38.966;2022-08-21T13:47:07;44.15;;;6.10;;
65202;SDS011;51788;45.124;38.966;2022-08-21T13:49:37;36.92;;;7.28;;
65202;SDS011;51788;45.124;38.966;2022-08-21T13:52:13;59.03;;;7.38;;
65202;SDS011;51788;45.124;38.966;2022-08-21T13:54:58;53.40;;;6.90;;
65202;SDS011;51788;45.124;38.966;2022-08-21T13:57:29;50.40;;;5.82;;
65202;SDS011;51788;45.124;38.966;2022-08-21T14:00:12;54.25;;;6.72;;
65202;SDS011;51788;45.124;38.966;2022-08-21T14:02:51;39.22;;;6.32;;
65202;SDS011;51788;45.124;38.966;2022-08-21T14:05:28;38.88;;;6.25;;
65202;SDS011;51788;45.124;38.966;2022-08-21T14:08:02;30.63;;;5.20;;
65202;SDS011;51788;45.124;38.966;2022-08-21T14:10:44;41.63;;;6.57;;
65202;SDS011;51788;45.124;38.966;2022-08-21T14:15:59;55.50;;;6.25;;
65202;SDS011;51788;45.124;38.966;2022-08-21T14:18:27;44.75;;;6.70;;
65202;SDS011;51788;45.124;38.966;2022-08-21T14:21:08;51.00;;;7.90;;
65202;SDS011;51788;45.124;38.966;2022-08-21T14:23:34;39.28;;;7.28;;
65202;SDS011;51788;45.124;38.966;2022-08-21T14:26:02;36.53;;;6.40;;
65202;SDS011;51788;45.124;38.966;2022-08-21T14:28:31;47.78;;;6.47;;
65202;SDS011;51788;45.124;38.966;2022-08-21T14:31:10;54.58;;;7.18;;
65202;SDS011;51788;45.124;38.966;2022-08-21T14:33:38;60.28;;;9.80;;
65202;SDS011;51788;45.124;38.966;2022-08-21T14:36:05;40.28;;;6.32;;
65202;SDS011;51788;45.124;38.966;2022-08-21T14:38:31;56.72;;;8.15;;
65202;SDS011;51788;45.124;38.966;2022-08-21T14:40:59;54.88;;;7.00;;
65202;SDS011;51788;45.124;38.966;2022-08-21T14:43:29;44.90;;;6.90;;
65202;SDS011;51788;45.124;38.966;2022-08-21T14:45:56;47.65;;;7.65;;
65202;SDS011;51788;45.124;38.966;2022-08-21T14:48:22;54.05;;;7.25;;
65202;SDS011;51788;45.124;38.966;2022-08-21T14:50:49;43.63;;;7.13;;
65202;SDS011;51788;45.124;38.966;2022-08-21T14:53:16;72.53;;;8.60;;
65202;SDS011;51788;45.124;38.966;2022-08-21T14:55:42;46.97;;;7.60;;
65202;SDS011;51788;45.124;38.966;2022-08-21T14:58:27;46.50;;;7.75;;
65202;SDS011;51788;45.124;38.966;2022-08-21T15:00:53;52.10;;;6.75;;
65202;SDS011;51788;45.124;38.966;2022-08-21T15:03:20;48.40;;;7.55;;
65202;SDS011;51788;45.124;38.966;2022-08-21T15:05:49;50.67;;;6.45;;
65202;SDS011;51788;45.124;38.966;2022-08-21T15:08:15;37.53;;;5.78;;
65202;SDS011;51788;45.124;38.966;2022-08-21T15:10:41;42.42;;;8.20;;
65202;SDS011;51788;45.124;38.966;2022-08-21T15:13:08;39.13;;;7.60;;
65202;SDS011;51788;45.124;38.966;2022-08-21T15:15:35;52.97;;;7.68;;
65202;SDS011;51788;45.124;38.966;2022-08-21T15:18:05;38.70;;;8.30;;
65202;SDS011;51788;45.124;38.966;2022-08-21T15:20:31;46.08;;;7.53;;
65202;SDS011;51788;45.124;38.966;2022-08-21T15:22:58;59.92;;;6.85;;
65202;SDS011;51788;45.124;38.966;2022-08-21T15:25:24;53.60;;;7.65;;
65202;SDS011;51788;45.124;38.966;2022-08-21T15:27:50;58.75;;;6.75;;
65202;SDS011;51788;45.124;38.966;2022-08-21T15:30:16;41.13;;;7.03;;
65202;SDS011;51788;45.124;38.966;2022-08-21T15:32:42;40.50;;;5.40;;
65202;SDS011;51788;45.124;38.966;2022-08-21T15:35:08;43.72;;;7.30;;
65202;SDS011;51788;45.124;38.966;2022-08-21T15:37:34;52.83;;;6.30;;
65202;SDS011;51788;45.124;38.966;2022-08-21T15:40:01;44.30;;;6.80;;
65202;SDS011;51788;45.124;38.966;2022-08-21T15:42:29;42.50;;;6.15;;
65202;SDS011;51788;45.124;38.966;2022-08-21T15:44:56;36.95;;;5.60;;
65202;SDS011;51788;45.124;38.966;2022-08-21T15:47:30;53.85;;;6.70;;
65202;SDS011;51788;45.124;38.966;2022-08-21T15:49:58;47.17;;;5.93;;
65202;SDS011;51788;45.124;38.966;2022-08-21T15:52:25;41.22;;;6.57;;
65202;SDS011;51788;45.124;38.966;2022-08-21T15:54:51;41.20;;;5.50;;
65202;SDS011;51788;45.124;38.966;2022-08-21T15:57:20;47.65;;;6.45;;
65202;SDS011;51788;45.124;38.966;2022-08-21T15:59:49;49.50;;;8.13;;
65202;SDS011;51788;45.124;38.966;2022-08-21T16:02:18;32.60;;;6.68;;
65202;SDS011;51788;45.124;38.966;2022-08-21T16:04:48;53.50;;;7.65;;
65202;SDS011;51788;45.124;38.966;2022-08-21T16:07:14;48.22;;;7.10;;
65202;SDS011;51788;45.124;38.966;2022-08-21T16:09:41;49.13;;;7.03;;